Tasman Sea — WDB5559 — position and weather

sailwx.info

Track history (hours):
 
Tides and Currents Weather Stations Pressure Air Temp Water Temp Dewpoint Dewpoint Depression Visibility Wind Speed Wind Dir Waves Ship Positions

Tasman Sea

Owner: Kirby Offshore Marine, LLC, Staten Island, NY. More information available from US FCC via Universal Licensing System and Coast Guard Vessel Documentation Center.

Last reported at 2015-Aug-29 06:31 UTC. Time now 2015-Aug-29 07:26 UTC.
Position N 40°39' W 074°10'.

Length 38 m; draft 5 m.

Type: Tug. MMSI: 366910960.

Date/timePositionNaut miles runAvg speedWind from/ knotsBaromVisibWave heightAir tempDewpointWater temp
2015-Aug-29 06:31N 40°39' W 074°10'0 0.0
2015-Aug-29 05:31N 40°39' W 074°10'0 0.0
2015-Aug-29 04:31N 40°39' W 074°10'0 0.0
2015-Aug-29 03:31N 40°39' W 074°10'0 0.0
2015-Aug-29 02:31N 40°39' W 074°10'0 0.0
2015-Aug-29 01:31N 40°39' W 074°10'0 0.0
2015-Aug-29 00:31N 40°39' W 074°10'0 0.0
2015-Aug-28 23:34N 40°39' W 074°10'0 0.0
2015-Aug-28 22:30N 40°39' W 074°10'0 0.0
2015-Aug-28 21:33N 40°39' W 074°10'0 0.0
2015-Aug-28 20:33N 40°39' W 074°10'0 0.0
2015-Aug-28 19:33N 40°39' W 074°10'0 0.0
2015-Aug-28 18:33N 40°39' W 074°10'0 0.0
2015-Aug-28 17:33N 40°39' W 074°10'0 0.0
2015-Aug-28 16:30N 40°39' W 074°10'6 5.7
2015-Aug-28 15:32N 40°40' W 074°03'2 2.3
2015-Aug-28 14:34N 40°37' W 074°03'7 6.9
2015-Aug-28 13:33N 40°31' W 073°59'8 7.7
2015-Aug-28 12:31N 40°29' W 073°49'8 8.8
2015-Aug-28 11:33N 40°30' W 073°38'9 8.9
2015-Aug-28 10:31N 40°32' W 073°26'9 9.0
2015-Aug-28 09:33N 40°34' W 073°15'9 9.2
2015-Aug-28 08:34N 40°37' W 073°04'9 9.3
2015-Aug-28 07:33N 40°40' W 072°52'9 9.3
2015-Aug-28 06:33N 40°44' W 072°41'9 9.2
2015-Aug-28 05:33N 40°47' W 072°30'9 9.2
2015-Aug-28 04:33N 40°51' W 072°18'9 9.3
2015-Aug-28 03:33N 40°54' W 072°07'9 9.2
2015-Aug-28 02:33N 40°58' W 071°56'9 9.0
2015-Aug-28 01:34N 41°01' W 071°45'9 9.0
2015-Aug-28 00:33N 41°05' W 071°34'9 8.7
2015-Aug-27 23:33N 41°09' W 071°24'9 8.6
2015-Aug-27 22:33N 41°15' W 071°15'9 8.5
2015-Aug-27 21:33N 41°22' W 071°08'8 7.9
2015-Aug-27 20:33N 41°27' W 071°00'8 7.6
2015-Aug-27 19:31N 41°30' W 070°51'8 8.0
2015-Aug-27 18:33N 41°35' W 070°43'  
2015-Aug-25 03:30N 43°11' W 070°16'8 8.5
2015-Aug-25 02:30N 43°03' W 070°20'9 8.6
2015-Aug-25 01:27N 42°54' W 070°23'8 8.4
2015-Aug-25 00:33N 42°47' W 070°26'9 8.2
2015-Aug-24 23:30N 42°39' W 070°30'9 7.4
2015-Aug-24 22:18N 42°33' W 070°38'6 7.5
2015-Aug-24 21:27N 42°28' W 070°45'7 7.5
2015-Aug-24 20:32N 42°24' W 070°52'7 6.8
2015-Aug-24 19:30N 42°20' W 070°60'4 0.4
2015-Aug-24 09:23N 42°24' W 071°01'2 0.3
2015-Aug-24 01:19N 42°22' W 071°03'9 2.2
2015-Aug-23 21:23N 42°23' W 070°51'40 5.8
2015-Aug-23 14:30N 41°45' W 070°36'10 4.4
2015-Aug-23 12:17N 41°36' W 070°42'3 3.2
2015-Aug-23 11:25N 41°34' W 070°44'5 5.3
2015-Aug-23 10:32N 41°31' W 070°49'6 6.4
2015-Aug-23 09:33N 41°28' W 070°57'7 6.6
2015-Aug-23 08:34N 41°24' W 071°03'7 6.9
2015-Aug-23 07:33N 41°19' W 071°09'7 6.9
2015-Aug-23 06:34N 41°13' W 071°15'7 6.6
2015-Aug-23 05:34N 41°09' W 071°21'7 6.5
2015-Aug-23 04:34N 41°06' W 071°29'6 6.3
2015-Aug-23 03:34N 41°04' W 071°37'6 6.2
2015-Aug-23 02:33N 41°01' W 071°44'6 6.0
2015-Aug-23 01:34N 40°59' W 071°52'6 6.2
2015-Aug-23 00:34N 40°57' W 071°59'6 6.4
2015-Aug-22 23:34N 40°54' W 072°07'7 6.5
2015-Aug-22 22:34N 40°52' W 072°15'6 6.5
2015-Aug-22 21:33N 40°49' W 072°23'7 6.4
2015-Aug-22 20:29N 40°47' W 072°31'6 6.4
2015-Aug-22 19:32N 40°44' W 072°39'26 6.4
2015-Aug-22 15:33N 40°35' W 073°10'6 6.1
2015-Aug-22 14:31N 40°33' W 073°18'6 6.0
2015-Aug-22 13:33N 40°31' W 073°26'6 6.1
2015-Aug-22 12:32N 40°30' W 073°34'6 6.3
2015-Aug-22 11:33N 40°29' W 073°42'6 6.4
2015-Aug-22 10:33N 40°27' W 073°50'6 6.3
2015-Aug-22 09:33N 40°28' W 073°58'14 4.4
2015-Aug-22 06:22N 40°33' W 074°15'0 0.0
2015-Aug-22 04:16N 40°33' W 074°15'0 0.0
2015-Aug-22 03:10N 40°33' W 074°15'0 0.0
2015-Aug-22 02:28N 40°33' W 074°15'0 0.0
2015-Aug-22 01:31N 40°33' W 074°15'0 0.0
2015-Aug-22 00:25N 40°33' W 074°15'0 0.0
2015-Aug-21 23:31N 40°33' W 074°15'0 0.0
2015-Aug-21 22:31N 40°33' W 074°15'0 0.0
2015-Aug-21 21:31N 40°33' W 074°15'0 0.1
2015-Aug-21 15:19N 40°33' W 074°15'3 3.2
2015-Aug-21 14:29N 40°35' W 074°13'5 5.1
2015-Aug-21 13:34N 40°39' W 074°10'6 5.6
2015-Aug-21 12:31N 40°40' W 074°02'0 0.0
2015-Aug-21 11:31N 40°40' W 074°02'0 0.0
2015-Aug-21 10:31N 40°40' W 074°02'0 0.0
2015-Aug-21 09:31N 40°40' W 074°02'0 0.0
2015-Aug-21 08:31N 40°40' W 074°02'0 0.2
2015-Aug-21 07:31N 40°40' W 074°02'0 0.0
2015-Aug-21 06:31N 40°40' W 074°02'0 0.0
2015-Aug-21 05:31N 40°40' W 074°02'0 0.0
2015-Aug-21 04:31N 40°40' W 074°02'0 0.0
2015-Aug-21 03:31N 40°40' W 074°02'0 0.0
2015-Aug-21 02:31N 40°40' W 074°02'0 0.0
2015-Aug-21 01:31N 40°40' W 074°02'0 0.1
2015-Aug-21 00:31N 40°40' W 074°02'0 0.1
2015-Aug-20 23:31N 40°40' W 074°02'0 0.0
2015-Aug-20 22:31N 40°40' W 074°02'0 0.0
2015-Aug-20 21:31N 40°40' W 074°02'0 0.0
2015-Aug-20 20:31N 40°40' W 074°02'0 0.0
2015-Aug-20 19:31N 40°40' W 074°02'0 0.0
2015-Aug-20 18:31N 40°40' W 074°02'0 0.1
2015-Aug-20 17:31N 40°40' W 074°02'0 0.0
2015-Aug-20 16:31N 40°40' W 074°02'0 0.0
2015-Aug-20 15:31N 40°40' W 074°02'0 0.0
2015-Aug-20 14:31N 40°40' W 074°02'0 0.0
2015-Aug-20 13:31N 40°40' W 074°02'0 0.1
2015-Aug-20 12:31N 40°40' W 074°02'0 0.1
2015-Aug-20 11:31N 40°40' W 074°02'0 0.0
2015-Aug-20 10:31N 40°40' W 074°02'0 0.0
2015-Aug-20 09:31N 40°40' W 074°02'0 0.0
2015-Aug-20 08:31N 40°40' W 074°02'0 0.0
2015-Aug-20 07:31N 40°40' W 074°02'2 2.0
2015-Aug-20 06:33N 40°39' W 074°04'6 5.6
2015-Aug-20 05:33N 40°39' W 074°11'3 2.4
2015-Aug-20 04:30N 40°36' W 074°12'0 0.0
2015-Aug-20 03:30N 40°36' W 074°12'3 3.0
2015-Aug-20 02:32N 40°39' W 074°10'0 0.0
2015-Aug-20 01:26N 40°39' W 074°10'0 0.0
2015-Aug-20 00:17N 40°39' W 074°10'0 0.0
2015-Aug-19 23:32N 40°39' W 074°10'0 0.3
2015-Aug-19 22:32N 40°39' W 074°10'3 0.4
2015-Aug-19 16:16N 40°37' W 074°12'1 1.8
2015-Aug-19 15:33N 40°38' W 074°12'7 7.3
2015-Aug-19 14:33N 40°40' W 074°03'1 0.5
2015-Aug-19 13:31N 40°40' W 074°03'0 0.2
2015-Aug-19 12:31N 40°40' W 074°02'0 0.0
2015-Aug-19 11:31N 40°40' W 074°03'0 0.0
2015-Aug-19 10:31N 40°40' W 074°03'0 0.0
2015-Aug-19 09:31N 40°40' W 074°03'0 0.0
2015-Aug-19 08:31N 40°40' W 074°03'0 0.0
2015-Aug-19 07:31N 40°40' W 074°03'0 0.1
2015-Aug-19 06:31N 40°40' W 074°03'  
Track history (hours):
 
Tides and Currents Weather Stations Pressure Air Temp Water Temp Dewpoint Dewpoint Depression Visibility Wind Speed Wind Dir Waves Ship Positions

Tasman Sea

Owner: Kirby Offshore Marine, LLC, Staten Island, NY. More information available from US FCC via Universal Licensing System and Coast Guard Vessel Documentation Center.

Last reported at 2015-Aug-29 06:31 UTC. Time now 2015-Aug-29 07:26 UTC.
Position N 40°39' W 074°10'.

Length 38 m; draft 5 m.

Type: Tug. MMSI: 366910960.

Date/timePositionNaut miles runAvg speedWind from/ knotsBaromVisibWave heightAir tempDewpointWater temp
2015-Aug-29 06:31N 40°39' W 074°10'0 0.0
2015-Aug-29 05:31N 40°39' W 074°10'0 0.0
2015-Aug-29 04:31N 40°39' W 074°10'0 0.0
2015-Aug-29 03:31N 40°39' W 074°10'0 0.0
2015-Aug-29 02:31N 40°39' W 074°10'0 0.0
2015-Aug-29 01:31N 40°39' W 074°10'0 0.0
2015-Aug-29 00:31N 40°39' W 074°10'0 0.0
2015-Aug-28 23:34N 40°39' W 074°10'0 0.0
2015-Aug-28 22:30N 40°39' W 074°10'0 0.0
2015-Aug-28 21:33N 40°39' W 074°10'0 0.0
2015-Aug-28 20:33N 40°39' W 074°10'0 0.0
2015-Aug-28 19:33N 40°39' W 074°10'0 0.0
2015-Aug-28 18:33N 40°39' W 074°10'0 0.0
2015-Aug-28 17:33N 40°39' W 074°10'0 0.0
2015-Aug-28 16:30N 40°39' W 074°10'6 5.7
2015-Aug-28 15:32N 40°40' W 074°03'2 2.3
2015-Aug-28 14:34N 40°37' W 074°03'7 6.9
2015-Aug-28 13:33N 40°31' W 073°59'8 7.7
2015-Aug-28 12:31N 40°29' W 073°49'8 8.8
2015-Aug-28 11:33N 40°30' W 073°38'9 8.9
2015-Aug-28 10:31N 40°32' W 073°26'9 9.0
2015-Aug-28 09:33N 40°34' W 073°15'9 9.2
2015-Aug-28 08:34N 40°37' W 073°04'9 9.3
2015-Aug-28 07:33N 40°40' W 072°52'9 9.3
2015-Aug-28 06:33N 40°44' W 072°41'9 9.2
2015-Aug-28 05:33N 40°47' W 072°30'9 9.2
2015-Aug-28 04:33N 40°51' W 072°18'9 9.3
2015-Aug-28 03:33N 40°54' W 072°07'9 9.2
2015-Aug-28 02:33N 40°58' W 071°56'9 9.0
2015-Aug-28 01:34N 41°01' W 071°45'9 9.0
2015-Aug-28 00:33N 41°05' W 071°34'9 8.7
2015-Aug-27 23:33N 41°09' W 071°24'9 8.6
2015-Aug-27 22:33N 41°15' W 071°15'9 8.5
2015-Aug-27 21:33N 41°22' W 071°08'8 7.9
2015-Aug-27 20:33N 41°27' W 071°00'8 7.6
2015-Aug-27 19:31N 41°30' W 070°51'8 8.0
2015-Aug-27 18:33N 41°35' W 070°43'  
2015-Aug-25 03:30N 43°11' W 070°16'8 8.5
2015-Aug-25 02:30N 43°03' W 070°20'9 8.6
2015-Aug-25 01:27N 42°54' W 070°23'8 8.4
2015-Aug-25 00:33N 42°47' W 070°26'9 8.2
2015-Aug-24 23:30N 42°39' W 070°30'9 7.4
2015-Aug-24 22:18N 42°33' W 070°38'6 7.5
2015-Aug-24 21:27N 42°28' W 070°45'7 7.5
2015-Aug-24 20:32N 42°24' W 070°52'7 6.8
2015-Aug-24 19:30N 42°20' W 070°60'4 0.4
2015-Aug-24 09:23N 42°24' W 071°01'2 0.3
2015-Aug-24 01:19N 42°22' W 071°03'9 2.2
2015-Aug-23 21:23N 42°23' W 070°51'40 5.8
2015-Aug-23 14:30N 41°45' W 070°36'10 4.4
2015-Aug-23 12:17N 41°36' W 070°42'3 3.2
2015-Aug-23 11:25N 41°34' W 070°44'5 5.3
2015-Aug-23 10:32N 41°31' W 070°49'6 6.4
2015-Aug-23 09:33N 41°28' W 070°57'7 6.6
2015-Aug-23 08:34N 41°24' W 071°03'7 6.9
2015-Aug-23 07:33N 41°19' W 071°09'7 6.9
2015-Aug-23 06:34N 41°13' W 071°15'7 6.6
2015-Aug-23 05:34N 41°09' W 071°21'7 6.5
2015-Aug-23 04:34N 41°06' W 071°29'6 6.3
2015-Aug-23 03:34N 41°04' W 071°37'6 6.2
2015-Aug-23 02:33N 41°01' W 071°44'6 6.0
2015-Aug-23 01:34N 40°59' W 071°52'6 6.2
2015-Aug-23 00:34N 40°57' W 071°59'6 6.4
2015-Aug-22 23:34N 40°54' W 072°07'7 6.5
2015-Aug-22 22:34N 40°52' W 072°15'6 6.5
2015-Aug-22 21:33N 40°49' W 072°23'7 6.4
2015-Aug-22 20:29N 40°47' W 072°31'6 6.4
2015-Aug-22 19:32N 40°44' W 072°39'26 6.4
2015-Aug-22 15:33N 40°35' W 073°10'6 6.1
2015-Aug-22 14:31N 40°33' W 073°18'6 6.0
2015-Aug-22 13:33N 40°31' W 073°26'6 6.1
2015-Aug-22 12:32N 40°30' W 073°34'6 6.3
2015-Aug-22 11:33N 40°29' W 073°42'6 6.4
2015-Aug-22 10:33N 40°27' W 073°50'6 6.3
2015-Aug-22 09:33N 40°28' W 073°58'14 4.4
2015-Aug-22 06:22N 40°33' W 074°15'0 0.0
2015-Aug-22 04:16N 40°33' W 074°15'0 0.0
2015-Aug-22 03:10N 40°33' W 074°15'0 0.0
2015-Aug-22 02:28N 40°33' W 074°15'0 0.0
2015-Aug-22 01:31N 40°33' W 074°15'0 0.0
2015-Aug-22 00:25N 40°33' W 074°15'0 0.0
2015-Aug-21 23:31N 40°33' W 074°15'0 0.0
2015-Aug-21 22:31N 40°33' W 074°15'0 0.0
2015-Aug-21 21:31N 40°33' W 074°15'0 0.1
2015-Aug-21 15:19N 40°33' W 074°15'3 3.2
2015-Aug-21 14:29N 40°35' W 074°13'5 5.1
2015-Aug-21 13:34N 40°39' W 074°10'6 5.6
2015-Aug-21 12:31N 40°40' W 074°02'0 0.0
2015-Aug-21 11:31N 40°40' W 074°02'0 0.0
2015-Aug-21 10:31N 40°40' W 074°02'0 0.0
2015-Aug-21 09:31N 40°40' W 074°02'0 0.0
2015-Aug-21 08:31N 40°40' W 074°02'0 0.2
2015-Aug-21 07:31N 40°40' W 074°02'0 0.0
2015-Aug-21 06:31N 40°40' W 074°02'0 0.0
2015-Aug-21 05:31N 40°40' W 074°02'0 0.0
2015-Aug-21 04:31N 40°40' W 074°02'0 0.0
2015-Aug-21 03:31N 40°40' W 074°02'0 0.0
2015-Aug-21 02:31N 40°40' W 074°02'0 0.0
2015-Aug-21 01:31N 40°40' W 074°02'0 0.1
2015-Aug-21 00:31N 40°40' W 074°02'0 0.1
2015-Aug-20 23:31N 40°40' W 074°02'0 0.0
2015-Aug-20 22:31N 40°40' W 074°02'0 0.0
2015-Aug-20 21:31N 40°40' W 074°02'0 0.0
2015-Aug-20 20:31N 40°40' W 074°02'0 0.0
2015-Aug-20 19:31N 40°40' W 074°02'0 0.0
2015-Aug-20 18:31N 40°40' W 074°02'0 0.1
2015-Aug-20 17:31N 40°40' W 074°02'0 0.0
2015-Aug-20 16:31N 40°40' W 074°02'0 0.0
2015-Aug-20 15:31N 40°40' W 074°02'0 0.0
2015-Aug-20 14:31N 40°40' W 074°02'0 0.0
2015-Aug-20 13:31N 40°40' W 074°02'0 0.1
2015-Aug-20 12:31N 40°40' W 074°02'0 0.1
2015-Aug-20 11:31N 40°40' W 074°02'0 0.0
2015-Aug-20 10:31N 40°40' W 074°02'0 0.0
2015-Aug-20 09:31N 40°40' W 074°02'0 0.0
2015-Aug-20 08:31N 40°40' W 074°02'0 0.0
2015-Aug-20 07:31N 40°40' W 074°02'2 2.0
2015-Aug-20 06:33N 40°39' W 074°04'6 5.6
2015-Aug-20 05:33N 40°39' W 074°11'3 2.4
2015-Aug-20 04:30N 40°36' W 074°12'0 0.0
2015-Aug-20 03:30N 40°36' W 074°12'3 3.0
2015-Aug-20 02:32N 40°39' W 074°10'0 0.0
2015-Aug-20 01:26N 40°39' W 074°10'0 0.0
2015-Aug-20 00:17N 40°39' W 074°10'0 0.0
2015-Aug-19 23:32N 40°39' W 074°10'0 0.3
2015-Aug-19 22:32N 40°39' W 074°10'3 0.4
2015-Aug-19 16:16N 40°37' W 074°12'1 1.8
2015-Aug-19 15:33N 40°38' W 074°12'7 7.3
2015-Aug-19 14:33N 40°40' W 074°03'1 0.5
2015-Aug-19 13:31N 40°40' W 074°03'0 0.2
2015-Aug-19 12:31N 40°40' W 074°02'0 0.0
2015-Aug-19 11:31N 40°40' W 074°03'0 0.0
2015-Aug-19 10:31N 40°40' W 074°03'0 0.0
2015-Aug-19 09:31N 40°40' W 074°03'0 0.0
2015-Aug-19 08:31N 40°40' W 074°03'0 0.0
2015-Aug-19 07:31N 40°40' W 074°03'0 0.1
2015-Aug-19 06:31N 40°40' W 074°03'  

Dump ship's entire track history